sensor_id;sensor_type;location;lat;lon;timestamp;pressure;altitude;pressure_sealevel;temperature;humidity
52735;BME280;38631;47.572;10.704;2023-11-21T00:00:32;91996.91;;;5.23;100.00
52735;BME280;38631;47.572;10.704;2023-11-21T00:02:57;92008.59;;;5.35;100.00
52735;BME280;38631;47.572;10.704;2023-11-21T00:05:23;92008.09;;;5.52;100.00
52735;BME280;38631;47.572;10.704;2023-11-21T00:07:48;92003.81;;;5.37;100.00
52735;BME280;38631;47.572;10.704;2023-11-21T00:10:14;92010.38;;;5.40;100.00
52735;BME280;38631;47.572;10.704;2023-11-21T00:12:39;92011.44;;;5.72;100.00
52735;BME280;38631;47.572;10.704;2023-11-21T00:15:07;91999.72;;;5.64;100.00
52735;BME280;38631;47.572;10.704;2023-11-21T00:17:39;92014.31;;;5.56;100.00
52735;BME280;38631;47.572;10.704;2023-11-21T00:20:06;92003.94;;;5.65;100.00
52735;BME280;38631;47.572;10.704;2023-11-21T00:22:35;91995.06;;;5.23;100.00
52735;BME280;38631;47.572;10.704;2023-11-21T00:25:01;92003.94;;;5.46;100.00
52735;BME280;38631;47.572;10.704;2023-11-21T00:27:26;92001.88;;;5.62;100.00
52735;BME280;38631;47.572;10.704;2023-11-21T00:29:52;92000.25;;;5.47;100.00
52735;BME280;38631;47.572;10.704;2023-11-21T00:32:17;91989.06;;;5.36;100.00
52735;BME280;38631;47.572;10.704;2023-11-21T00:34:42;92004.00;;;5.60;100.00
52735;BME280;38631;47.572;10.704;2023-11-21T00:37:08;91989.81;;;5.23;100.00
52735;BME280;38631;47.572;10.704;2023-11-21T00:39:33;91997.09;;;5.64;100.00
52735;BME280;38631;47.572;10.704;2023-11-21T00:42:00;91992.31;;;5.66;100.00
52735;BME280;38631;47.572;10.704;2023-11-21T00:44:26;91990.53;;;5.61;100.00
52735;BME280;38631;47.572;10.704;2023-11-21T00:46:51;91989.16;;;5.50;100.00
52735;BME280;38631;47.572;10.704;2023-11-21T00:49:16;91992.97;;;5.58;100.00
52735;BME280;38631;47.572;10.704;2023-11-21T00:51:42;91998.41;;;5.48;100.00
52735;BME280;38631;47.572;10.704;2023-11-21T00:54:07;92001.63;;;5.45;100.00
52735;BME280;38631;47.572;10.704;2023-11-21T00:56:32;92007.78;;;5.54;100.00
52735;BME280;38631;47.572;10.704;2023-11-21T00:58:59;91994.63;;;5.54;100.00
52735;BME280;38631;47.572;10.704;2023-11-21T01:01:24;91992.00;;;5.35;100.00
52735;BME280;38631;47.572;10.704;2023-11-21T01:03:50;91990.44;;;5.53;100.00
52735;BME280;38631;47.572;10.704;2023-11-21T01:06:16;91994.66;;;5.35;100.00
52735;BME280;38631;47.572;10.704;2023-11-21T01:08:41;91999.75;;;5.45;100.00
52735;BME280;38631;47.572;10.704;2023-11-21T01:11:07;91982.84;;;5.32;100.00
52735;BME280;38631;47.572;10.704;2023-11-21T01:13:38;91988.09;;;4.94;100.00
52735;BME280;38631;47.572;10.704;2023-11-21T01:16:04;91998.97;;;5.26;100.00
52735;BME280;38631;47.572;10.704;2023-11-21T01:18:31;91989.31;;;5.40;100.00
52735;BME280;38631;47.572;10.704;2023-11-21T01:20:57;91984.25;;;5.06;100.00
52735;BME280;38631;47.572;10.704;2023-11-21T01:23:22;91983.84;;;5.17;100.00
52735;BME280;38631;47.572;10.704;2023-11-21T01:25:49;91997.03;;;5.31;100.00
52735;BME280;38631;47.572;10.704;2023-11-21T01:28:17;91986.59;;;5.26;100.00
52735;BME280;38631;47.572;10.704;2023-11-21T01:30:43;91998.78;;;5.22;100.00
52735;BME280;38631;47.572;10.704;2023-11-21T01:33:09;91993.41;;;5.46;100.00
52735;BME280;38631;47.572;10.704;2023-11-21T01:35:35;91993.06;;;5.53;100.00
52735;BME280;38631;47.572;10.704;2023-11-21T01:38:01;91988.69;;;5.29;100.00
52735;BME280;38631;47.572;10.704;2023-11-21T01:40:26;91991.56;;;5.47;100.00
52735;BME280;38631;47.572;10.704;2023-11-21T01:42:53;91972.88;;;5.29;100.00
52735;BME280;38631;47.572;10.704;2023-11-21T01:45:18;91977.91;;;5.45;100.00
52735;BME280;38631;47.572;10.704;2023-11-21T01:47:44;91981.09;;;5.41;100.00
52735;BME280;38631;47.572;10.704;2023-11-21T01:50:14;91977.50;;;5.37;100.00
52735;BME280;38631;47.572;10.704;2023-11-21T01:52:46;91977.34;;;5.48;100.00
52735;BME280;38631;47.572;10.704;2023-11-21T01:55:14;91986.28;;;5.47;99.50
52735;BME280;38631;47.572;10.704;2023-11-21T01:57:43;91983.09;;;5.50;100.00
52735;BME280;38631;47.572;10.704;2023-11-21T02:00:10;91973.88;;;5.33;100.00
52735;BME280;38631;47.572;10.704;2023-11-21T02:02:45;91980.28;;;5.27;100.00
52735;BME280;38631;47.572;10.704;2023-11-21T02:05:13;91971.59;;;5.27;100.00
52735;BME280;38631;47.572;10.704;2023-11-21T02:07:40;91968.81;;;5.37;100.00
52735;BME280;38631;47.572;10.704;2023-11-21T02:10:09;91964.22;;;5.10;100.00
52735;BME280;38631;47.572;10.704;2023-11-21T02:12:35;91972.47;;;5.22;100.00
52735;BME280;38631;47.572;10.704;2023-11-21T02:15:04;91968.44;;;5.44;100.00
52735;BME280;38631;47.572;10.704;2023-11-21T02:17:35;91974.00;;;5.42;100.00
52735;BME280;38631;47.572;10.704;2023-11-21T02:20:00;91957.56;;;5.31;100.00
52735;BME280;38631;47.572;10.704;2023-11-21T02:22:30;91969.03;;;5.40;100.00
52735;BME280;38631;47.572;10.704;2023-11-21T02:24:56;91974.72;;;5.10;100.00
52735;BME280;38631;47.572;10.704;2023-11-21T02:27:23;91960.72;;;4.95;100.00
52735;BME280;38631;47.572;10.704;2023-11-21T02:29:50;91958.22;;;5.23;100.00
52735;BME280;38631;47.572;10.704;2023-11-21T02:32:15;91961.94;;;5.22;100.00
52735;BME280;38631;47.572;10.704;2023-11-21T02:34:44;91955.63;;;5.04;100.00
52735;BME280;38631;47.572;10.704;2023-11-21T02:37:09;91955.66;;;5.18;100.00
52735;BME280;38631;47.572;10.704;2023-11-21T02:39:35;91961.97;;;5.36;100.00
52735;BME280;38631;47.572;10.704;2023-11-21T02:42:00;91957.22;;;5.38;100.00
52735;BME280;38631;47.572;10.704;2023-11-21T02:44:26;91947.13;;;5.26;100.00
52735;BME280;38631;47.572;10.704;2023-11-21T02:46:53;91942.66;;;5.08;100.00
52735;BME280;38631;47.572;10.704;2023-11-21T02:49:19;91948.78;;;5.22;100.00
52735;BME280;38631;47.572;10.704;2023-11-21T02:51:44;91950.25;;;4.90;100.00
52735;BME280;38631;47.572;10.704;2023-11-21T02:54:10;91959.16;;;5.13;100.00
52735;BME280;38631;47.572;10.704;2023-11-21T02:56:36;91949.41;;;5.14;100.00
52735;BME280;38631;47.572;10.704;2023-11-21T02:59:02;91948.28;;;5.20;100.00
52735;BME280;38631;47.572;10.704;2023-11-21T03:01:28;91942.44;;;5.23;100.00
52735;BME280;38631;47.572;10.704;2023-11-21T03:03:53;91937.66;;;5.25;100.00
52735;BME280;38631;47.572;10.704;2023-11-21T03:06:21;91944.72;;;5.30;100.00
52735;BME280;38631;47.572;10.704;2023-11-21T03:08:47;91943.03;;;5.34;100.00
52735;BME280;38631;47.572;10.704;2023-11-21T03:11:13;91944.75;;;5.44;100.00
52735;BME280;38631;47.572;10.704;2023-11-21T03:13:41;91946.41;;;5.39;100.00
52735;BME280;38631;47.572;10.704;2023-11-21T03:16:10;91950.69;;;5.16;100.00
52735;BME280;38631;47.572;10.704;2023-11-21T03:18:39;91936.31;;;5.28;100.00
52735;BME280;38631;47.572;10.704;2023-11-21T03:21:05;91946.59;;;5.43;100.00
52735;BME280;38631;47.572;10.704;2023-11-21T03:23:31;91942.59;;;5.46;100.00
52735;BME280;38631;47.572;10.704;2023-11-21T03:25:57;91939.78;;;5.42;100.00
52735;BME280;38631;47.572;10.704;2023-11-21T03:28:22;91953.91;;;5.46;100.00
52735;BME280;38631;47.572;10.704;2023-11-21T03:30:48;91937.94;;;5.24;100.00
52735;BME280;38631;47.572;10.704;2023-11-21T03:33:14;91945.69;;;5.34;100.00
52735;BME280;38631;47.572;10.704;2023-11-21T03:35:39;91949.56;;;5.23;100.00
52735;BME280;38631;47.572;10.704;2023-11-21T03:38:07;91948.53;;;5.37;100.00
52735;BME280;38631;47.572;10.704;2023-11-21T03:40:32;91954.72;;;5.28;100.00
52735;BME280;38631;47.572;10.704;2023-11-21T03:42:58;91946.91;;;5.04;100.00
52735;BME280;38631;47.572;10.704;2023-11-21T03:45:24;91957.22;;;5.19;100.00
52735;BME280;38631;47.572;10.704;2023-11-21T03:47:49;91960.94;;;5.18;100.00
52735;BME280;38631;47.572;10.704;2023-11-21T03:50:15;91955.94;;;5.16;100.00
52735;BME280;38631;47.572;10.704;2023-11-21T03:52:40;91956.94;;;5.20;100.00
52735;BME280;38631;47.572;10.704;2023-11-21T03:55:06;91959.22;;;5.27;100.00
52735;BME280;38631;47.572;10.704;2023-11-21T03:57:31;91962.66;;;5.41;100.00
52735;BME280;38631;47.572;10.704;2023-11-21T03:59:57;91957.88;;;5.30;100.00
52735;BME280;38631;47.572;10.704;2023-11-21T04:02:22;91958.78;;;5.20;100.00
52735;BME280;38631;47.572;10.704;2023-11-21T04:04:47;91965.19;;;5.14;100.00
52735;BME280;38631;47.572;10.704;2023-11-21T04:07:13;91972.25;;;5.00;100.00
52735;BME280;38631;47.572;10.704;2023-11-21T04:09:39;91963.28;;;4.82;100.00
52735;BME280;38631;47.572;10.704;2023-11-21T04:12:04;91972.72;;;5.20;100.00
52735;BME280;38631;47.572;10.704;2023-11-21T04:14:30;91970.53;;;5.28;100.00
52735;BME280;38631;47.572;10.704;2023-11-21T04:16:56;91975.22;;;4.93;100.00
52735;BME280;38631;47.572;10.704;2023-11-21T04:19:21;91964.41;;;4.75;100.00
52735;BME280;38631;47.572;10.704;2023-11-21T04:21:46;91970.22;;;4.72;100.00
52735;BME280;38631;47.572;10.704;2023-11-21T04:24:12;91972.63;;;4.69;100.00
52735;BME280;38631;47.572;10.704;2023-11-21T04:26:38;91961.69;;;4.62;100.00
52735;BME280;38631;47.572;10.704;2023-11-21T04:29:03;91966.00;;;4.71;100.00
52735;BME280;38631;47.572;10.704;2023-11-21T04:31:30;91970.22;;;4.72;100.00
52735;BME280;38631;47.572;10.704;2023-11-21T04:33:55;91952.75;;;5.01;100.00
52735;BME280;38631;47.572;10.704;2023-11-21T04:36:21;91954.38;;;5.15;100.00
52735;BME280;38631;47.572;10.704;2023-11-21T04:38:47;91956.66;;;5.03;100.00
52735;BME280;38631;47.572;10.704;2023-11-21T04:41:12;91966.47;;;4.97;100.00
52735;BME280;38631;47.572;10.704;2023-11-21T04:43:38;91957.28;;;5.14;100.00
52735;BME280;38631;47.572;10.704;2023-11-21T04:46:04;91960.50;;;5.11;100.00
52735;BME280;38631;47.572;10.704;2023-11-21T04:48:29;91972.28;;;4.75;100.00
52735;BME280;38631;47.572;10.704;2023-11-21T04:50:55;91954.56;;;4.62;100.00
52735;BME280;38631;47.572;10.704;2023-11-21T04:53:21;91967.66;;;4.86;100.00
52735;BME280;38631;47.572;10.704;2023-11-21T04:55:47;91963.41;;;4.90;100.00
52735;BME280;38631;47.572;10.704;2023-11-21T04:58:14;91980.22;;;5.32;100.00
52735;BME280;38631;47.572;10.704;2023-11-21T05:00:40;91956.44;;;5.18;100.00
52735;BME280;38631;47.572;10.704;2023-11-21T05:03:06;91955.94;;;5.16;100.00
52735;BME280;38631;47.572;10.704;2023-11-21T05:05:32;91966.34;;;5.27;100.00
52735;BME280;38631;47.572;10.704;2023-11-21T05:07:59;91967.13;;;5.27;100.00
52735;BME280;38631;47.572;10.704;2023-11-21T05:10:25;91965.13;;;5.19;100.00
52735;BME280;38631;47.572;10.704;2023-11-21T05:12:51;91973.09;;;5.33;100.00
52735;BME280;38631;47.572;10.704;2023-11-21T05:15:17;91977.88;;;5.12;100.00
52735;BME280;38631;47.572;10.704;2023-11-21T05:17:43;91986.66;;;5.21;100.00
52735;BME280;38631;47.572;10.704;2023-11-21T05:20:10;91979.69;;;5.30;100.00
52735;BME280;38631;47.572;10.704;2023-11-21T05:22:37;91994.34;;;5.36;100.00
52735;BME280;38631;47.572;10.704;2023-11-21T05:25:03;91977.78;;;5.36;100.00
52735;BME280;38631;47.572;10.704;2023-11-21T05:27:29;91985.34;;;5.05;100.00
52735;BME280;38631;47.572;10.704;2023-11-21T05:29:56;91996.19;;;5.36;100.00
52735;BME280;38631;47.572;10.704;2023-11-21T05:32:23;91980.84;;;5.24;100.00
52735;BME280;38631;47.572;10.704;2023-11-21T05:34:49;91989.94;;;5.13;100.00
52735;BME280;38631;47.572;10.704;2023-11-21T05:37:15;91987.25;;;5.18;100.00
52735;BME280;38631;47.572;10.704;2023-11-21T05:39:40;91994.88;;;5.19;100.00
52735;BME280;38631;47.572;10.704;2023-11-21T05:42:06;91985.03;;;5.06;100.00
52735;BME280;38631;47.572;10.704;2023-11-21T05:44:34;92005.44;;;5.33;100.00
52735;BME280;38631;47.572;10.704;2023-11-21T05:47:00;91984.53;;;5.23;100.00
52735;BME280;38631;47.572;10.704;2023-11-21T05:49:26;91991.34;;;4.86;100.00
52735;BME280;38631;47.572;10.704;2023-11-21T05:51:53;92001.53;;;4.93;100.00
52735;BME280;38631;47.572;10.704;2023-11-21T05:54:19;91991.94;;;5.02;100.00
52735;BME280;38631;47.572;10.704;2023-11-21T05:56:45;91994.06;;;5.19;100.00
52735;BME280;38631;47.572;10.704;2023-11-21T05:59:13;91990.66;;;5.18;100.00
52735;BME280;38631;47.572;10.704;2023-11-21T06:01:43;92006.31;;;5.29;100.00
52735;BME280;38631;47.572;10.704;2023-11-21T06:04:11;91998.34;;;5.15;100.00
52735;BME280;38631;47.572;10.704;2023-11-21T06:06:38;92010.09;;;5.23;100.00
52735;BME280;38631;47.572;10.704;2023-11-21T06:09:06;91984.19;;;4.92;100.00
52735;BME280;38631;47.572;10.704;2023-11-21T06:11:35;92009.16;;;5.13;100.00
52735;BME280;38631;47.572;10.704;2023-11-21T06:14:01;91994.91;;;4.95;100.00
52735;BME280;38631;47.572;10.704;2023-11-21T06:16:28;91997.47;;;5.01;100.00
52735;BME280;38631;47.572;10.704;2023-11-21T06:18:55;92001.31;;;4.89;100.00
52735;BME280;38631;47.572;10.704;2023-11-21T06:21:21;91989.66;;;4.95;100.00
52735;BME280;38631;47.572;10.704;2023-11-21T06:23:47;92007.63;;;4.88;100.00
52735;BME280;38631;47.572;10.704;2023-11-21T06:26:18;91994.41;;;4.93;100.00
52735;BME280;38631;47.572;10.704;2023-11-21T06:28:45;92014.13;;;5.15;100.00
52735;BME280;38631;47.572;10.704;2023-11-21T06:31:12;92013.69;;;5.08;100.00
52735;BME280;38631;47.572;10.704;2023-11-21T06:33:39;92026.59;;;5.09;100.00
52735;BME280;38631;47.572;10.704;2023-11-21T06:36:07;92017.38;;;4.88;100.00
52735;BME280;38631;47.572;10.704;2023-11-21T06:38:33;92030.00;;;5.10;100.00
52735;BME280;38631;47.572;10.704;2023-11-21T06:40:58;92030.56;;;5.07;100.00
52735;BME280;38631;47.572;10.704;2023-11-21T06:43:28;92030.63;;;5.02;100.00
52735;BME280;38631;47.572;10.704;2023-11-21T06:45:57;92024.13;;;4.94;100.00
52735;BME280;38631;47.572;10.704;2023-11-21T06:48:23;92020.72;;;4.93;100.00
52735;BME280;38631;47.572;10.704;2023-11-21T06:50:49;92029.75;;;5.06;100.00
52735;BME280;38631;47.572;10.704;2023-11-21T06:53:14;92024.34;;;4.97;100.00
52735;BME280;38631;47.572;10.704;2023-11-21T06:55:40;92036.25;;;5.14;100.00
52735;BME280;38631;47.572;10.704;2023-11-21T06:58:06;92024.16;;;5.13;100.00
52735;BME280;38631;47.572;10.704;2023-11-21T07:00:31;92025.84;;;5.04;100.00
52735;BME280;38631;47.572;10.704;2023-11-21T07:02:57;92032.31;;;5.11;100.00
52735;BME280;38631;47.572;10.704;2023-11-21T07:05:23;92044.63;;;5.16;100.00
52735;BME280;38631;47.572;10.704;2023-11-21T07:07:50;92037.53;;;5.16;100.00
52735;BME280;38631;47.572;10.704;2023-11-21T07:10:19;92042.38;;;5.09;100.00
52735;BME280;38631;47.572;10.704;2023-11-21T07:12:48;92053.63;;;5.15;100.00
52735;BME280;38631;47.572;10.704;2023-11-21T07:15:15;92033.19;;;5.07;100.00
52735;BME280;38631;47.572;10.704;2023-11-21T07:17:42;92038.88;;;5.14;100.00
52735;BME280;38631;47.572;10.704;2023-11-21T07:20:12;92044.13;;;5.14;100.00
52735;BME280;38631;47.572;10.704;2023-11-21T07:22:43;92059.44;;;5.31;100.00
52735;BME280;38631;47.572;10.704;2023-11-21T07:25:11;92043.34;;;5.13;100.00
52735;BME280;38631;47.572;10.704;2023-11-21T07:27:37;92036.16;;;5.00;100.00
52735;BME280;38631;47.572;10.704;2023-11-21T07:30:07;92046.63;;;5.05;100.00
52735;BME280;38631;47.572;10.704;2023-11-21T07:32:35;92043.94;;;5.10;100.00
52735;BME280;38631;47.572;10.704;2023-11-21T07:35:00;92042.50;;;5.18;100.00
52735;BME280;38631;47.572;10.704;2023-11-21T07:37:27;92048.13;;;5.11;100.00
52735;BME280;38631;47.572;10.704;2023-11-21T07:39:55;92042.13;;;5.06;100.00
52735;BME280;38631;47.572;10.704;2023-11-21T07:42:24;92068.00;;;5.23;100.00
52735;BME280;38631;47.572;10.704;2023-11-21T07:44:52;92053.75;;;5.05;100.00
52735;BME280;38631;47.572;10.704;2023-11-21T07:47:19;92059.16;;;5.13;100.00
52735;BME280;38631;47.572;10.704;2023-11-21T07:49:44;92053.31;;;5.16;100.00
52735;BME280;38631;47.572;10.704;2023-11-21T07:52:12;92055.16;;;4.97;100.00
52735;BME280;38631;47.572;10.704;2023-11-21T07:54:38;92051.56;;;5.12;100.00
52735;BME280;38631;47.572;10.704;2023-11-21T07:57:06;92059.84;;;5.19;100.00
52735;BME280;38631;47.572;10.704;2023-11-21T07:59:32;92081.84;;;5.09;100.00
52735;BME280;38631;47.572;10.704;2023-11-21T08:01:58;92071.53;;;5.13;100.00
52735;BME280;38631;47.572;10.704;2023-11-21T08:04:27;92066.50;;;4.92;100.00
52735;BME280;38631;47.572;10.704;2023-11-21T08:06:53;92062.06;;;5.12;100.00
52735;BME280;38631;47.572;10.704;2023-11-21T08:09:20;92073.81;;;5.19;100.00
52735;BME280;38631;47.572;10.704;2023-11-21T08:11:50;92074.19;;;5.32;100.00
52735;BME280;38631;47.572;10.704;2023-11-21T08:14:19;92068.50;;;5.01;100.00
52735;BME280;38631;47.572;10.704;2023-11-21T08:16:45;92076.66;;;5.23;100.00
52735;BME280;38631;47.572;10.704;2023-11-21T08:19:11;92087.47;;;5.22;100.00
52735;BME280;38631;47.572;10.704;2023-11-21T08:21:39;92091.09;;;5.26;100.00
52735;BME280;38631;47.572;10.704;2023-11-21T08:24:07;92082.81;;;4.94;100.00
52735;BME280;38631;47.572;10.704;2023-11-21T08:26:37;92078.81;;;4.73;100.00
52735;BME280;38631;47.572;10.704;2023-11-21T08:29:03;92071.97;;;4.77;100.00
52735;BME280;38631;47.572;10.704;2023-11-21T08:31:34;92072.88;;;4.86;100.00
52735;BME280;38631;47.572;10.704;2023-11-21T08:34:00;92074.44;;;5.11;100.00
52735;BME280;38631;47.572;10.704;2023-11-21T08:36:28;92081.22;;;5.17;100.00
52735;BME280;38631;47.572;10.704;2023-11-21T08:38:58;92084.41;;;5.14;100.00
52735;BME280;38631;47.572;10.704;2023-11-21T08:41:24;92091.31;;;4.86;100.00
52735;BME280;38631;47.572;10.704;2023-11-21T08:43:50;92078.78;;;5.02;100.00
52735;BME280;38631;47.572;10.704;2023-11-21T08:46:16;92081.72;;;5.19;100.00
52735;BME280;38631;47.572;10.704;2023-11-21T08:48:45;92061.28;;;5.11;100.00
52735;BME280;38631;47.572;10.704;2023-11-21T08:51:12;92076.69;;;4.99;100.00
52735;BME280;38631;47.572;10.704;2023-11-21T08:53:40;92083.97;;;5.07;100.00
52735;BME280;38631;47.572;10.704;2023-11-21T08:56:07;92093.81;;;5.20;100.00
52735;BME280;38631;47.572;10.704;2023-11-21T08:58:34;92090.41;;;5.20;100.00
52735;BME280;38631;47.572;10.704;2023-11-21T09:01:02;92100.28;;;5.28;100.00
52735;BME280;38631;47.572;10.704;2023-11-21T09:03:28;92089.88;;;5.18;100.00
52735;BME280;38631;47.572;10.704;2023-11-21T09:05:59;92093.22;;;4.81;100.00
52735;BME280;38631;47.572;10.704;2023-11-21T09:08:25;92085.31;;;4.81;100.00
52735;BME280;38631;47.572;10.704;2023-11-21T09:10:54;92104.91;;;5.17;100.00
52735;BME280;38631;47.572;10.704;2023-11-21T09:13:23;92093.09;;;5.15;100.00
52735;BME280;38631;47.572;10.704;2023-11-21T09:15:50;92109.59;;;5.20;100.00
52735;BME280;38631;47.572;10.704;2023-11-21T09:18:17;92105.16;;;5.40;100.00
52735;BME280;38631;47.572;10.704;2023-11-21T09:20:44;92086.78;;;5.35;100.00
52735;BME280;38631;47.572;10.704;2023-11-21T09:23:11;92090.69;;;5.37;100.00
52735;BME280;38631;47.572;10.704;2023-11-21T09:25:39;92100.31;;;5.47;100.00
52735;BME280;38631;47.572;10.704;2023-11-21T09:28:10;92108.34;;;5.56;100.00
52735;BME280;38631;47.572;10.704;2023-11-21T09:30:37;92095.66;;;5.39;100.00
52735;BME280;38631;47.572;10.704;2023-11-21T09:33:03;92093.19;;;5.48;100.00
52735;BME280;38631;47.572;10.704;2023-11-21T09:35:32;92113.28;;;5.62;100.00
52735;BME280;38631;47.572;10.704;2023-11-21T09:37:58;92116.69;;;5.63;100.00
52735;BME280;38631;47.572;10.704;2023-11-21T09:40:24;92124.94;;;5.75;100.00
52735;BME280;38631;47.572;10.704;2023-11-21T09:42:57;92120.63;;;5.84;100.00
52735;BME280;38631;47.572;10.704;2023-11-21T09:45:35;92103.25;;;5.65;100.00
52735;BME280;38631;47.572;10.704;2023-11-21T09:48:02;92102.72;;;5.81;100.00
52735;BME280;38631;47.572;10.704;2023-11-21T09:50:31;92116.56;;;5.92;100.00
52735;BME280;38631;47.572;10.704;2023-11-21T09:53:13;92116.44;;;6.02;100.00
52735;BME280;38631;47.572;10.704;2023-11-21T09:55:46;92107.31;;;5.95;100.00
52735;BME280;38631;47.572;10.704;2023-11-21T09:58:15;92092.69;;;5.83;100.00
52735;BME280;38631;47.572;10.704;2023-11-21T10:00:48;92099.03;;;5.82;100.00
52735;BME280;38631;47.572;10.704;2023-11-21T10:03:15;92112.63;;;5.90;100.00
52735;BME280;38631;47.572;10.704;2023-11-21T10:05:45;92100.31;;;5.85;100.00
52735;BME280;38631;47.572;10.704;2023-11-21T10:08:15;92097.84;;;5.94;100.00
52735;BME280;38631;47.572;10.704;2023-11-21T10:10:45;92105.00;;;5.88;100.00
52735;BME280;38631;47.572;10.704;2023-11-21T10:13:15;92119.97;;;5.93;100.00
52735;BME280;38631;47.572;10.704;2023-11-21T10:15:50;92111.56;;;5.72;100.00
52735;BME280;38631;47.572;10.704;2023-11-21T10:18:19;92107.63;;;5.88;100.00
52735;BME280;38631;47.572;10.704;2023-11-21T10:20:46;92110.38;;;6.02;100.00
52735;BME280;38631;47.572;10.704;2023-11-21T10:23:20;92112.13;;;6.06;100.00
52735;BME280;38631;47.572;10.704;2023-11-21T10:25:47;92106.25;;;5.96;100.00
52735;BME280;38631;47.572;10.704;2023-11-21T10:28:15;92113.84;;;5.78;100.00
52735;BME280;38631;47.572;10.704;2023-11-21T10:30:41;92098.03;;;5.78;100.00
52735;BME280;38631;47.572;10.704;2023-11-21T10:33:14;92088.50;;;5.82;100.00
52735;BME280;38631;47.572;10.704;2023-11-21T10:35:49;92097.41;;;6.05;100.00
52735;BME280;38631;47.572;10.704;2023-11-21T10:38:30;92102.53;;;5.97;100.00
52735;BME280;38631;47.572;10.704;2023-11-21T10:41:00;92106.75;;;5.98;100.00
52735;BME280;38631;47.572;10.704;2023-11-21T10:43:30;92086.94;;;6.00;100.00
52735;BME280;38631;47.572;10.704;2023-11-21T10:46:03;92091.50;;;5.95;100.00
52735;BME280;38631;47.572;10.704;2023-11-21T10:48:31;92104.88;;;5.98;100.00
52735;BME280;38631;47.572;10.704;2023-11-21T10:50:58;92082.06;;;5.89;100.00
52735;BME280;38631;47.572;10.704;2023-11-21T10:53:29;92083.03;;;5.98;100.00
52735;BME280;38631;47.572;10.704;2023-11-21T10:56:06;92103.03;;;5.99;100.00
52735;BME280;38631;47.572;10.704;2023-11-21T10:58:36;92101.38;;;6.03;100.00
52735;BME280;38631;47.572;10.704;2023-11-21T11:01:06;92079.75;;;5.87;100.00
52735;BME280;38631;47.572;10.704;2023-11-21T11:03:36;92096.31;;;5.88;100.00
52735;BME280;38631;47.572;10.704;2023-11-21T11:06:05;92085.09;;;5.82;100.00
52735;BME280;38631;47.572;10.704;2023-11-21T11:08:37;92091.25;;;5.91;100.00
52735;BME280;38631;47.572;10.704;2023-11-21T11:11:07;92087.91;;;5.85;100.00
52735;BME280;38631;47.572;10.704;2023-11-21T11:13:35;92090.66;;;5.99;100.00
52735;BME280;38631;47.572;10.704;2023-11-21T11:16:02;92087.84;;;5.91;100.00
52735;BME280;38631;47.572;10.704;2023-11-21T11:18:30;92088.50;;;5.82;100.00
52735;BME280;38631;47.572;10.704;2023-11-21T11:26:45;92083.38;;;5.34;100.00
52735;BME280;38631;47.572;10.704;2023-11-21T11:29:35;92100.94;;;5.39;100.00
52735;BME280;38631;47.572;10.704;2023-11-21T11:32:27;92073.06;;;5.57;100.00
52735;BME280;38631;47.572;10.704;2023-11-21T11:34:59;92085.78;;;5.31;100.00
52735;BME280;38631;47.572;10.704;2023-11-21T11:37:26;92076.53;;;5.52;100.00
52735;BME280;38631;47.572;10.704;2023-11-21T11:39:52;92078.88;;;5.54;100.00
52735;BME280;38631;47.572;10.704;2023-11-21T11:42:21;92084.16;;;5.73;100.00
52735;BME280;38631;47.572;10.704;2023-11-21T11:44:50;92086.78;;;5.54;100.00
52735;BME280;38631;47.572;10.704;2023-11-21T11:47:29;92093.66;;;5.31;100.00
52735;BME280;38631;47.572;10.704;2023-11-21T11:50:06;92086.75;;;5.16;100.00
52735;BME280;38631;47.572;10.704;2023-11-21T11:55:02;92092.25;;;5.19;100.00
52735;BME280;38631;47.572;10.704;2023-11-21T11:57:33;92079.41;;;5.13;100.00
52735;BME280;38631;47.572;10.704;2023-11-21T12:00:22;92075.03;;;5.27;100.00
52735;BME280;38631;47.572;10.704;2023-11-21T12:03:01;92083.31;;;5.39;100.00
52735;BME280;38631;47.572;10.704;2023-11-21T12:05:31;92081.84;;;5.28;100.00
52735;BME280;38631;47.572;10.704;2023-11-21T12:08:08;92084.72;;;5.32;100.00
52735;BME280;38631;47.572;10.704;2023-11-21T12:10:36;92093.13;;;5.53;100.00
52735;BME280;38631;47.572;10.704;2023-11-21T12:13:10;92095.41;;;5.59;100.00
52735;BME280;38631;47.572;10.704;2023-11-21T12:15:38;92102.94;;;5.47;100.00
52735;BME280;38631;47.572;10.704;2023-11-21T12:18:06;92083.97;;;5.26;100.00
52735;BME280;38631;47.572;10.704;2023-11-21T12:20:32;92087.25;;;5.18;100.00
52735;BME280;38631;47.572;10.704;2023-11-21T12:23:04;92104.72;;;5.33;100.00
52735;BME280;38631;47.572;10.704;2023-11-21T12:25:33;92094.63;;;5.40;100.00
52735;BME280;38631;47.572;10.704;2023-11-21T12:28:01;92089.41;;;5.35;100.00
52735;BME280;38631;47.572;10.704;2023-11-21T12:30:33;92085.06;;;5.44;100.00
52735;BME280;38631;47.572;10.704;2023-11-21T12:33:01;92085.44;;;5.56;100.00
52735;BME280;38631;47.572;10.704;2023-11-21T12:35:32;92094.84;;;5.62;100.00
52735;BME280;38631;47.572;10.704;2023-11-21T12:38:01;92095.53;;;5.68;100.00
52735;BME280;38631;47.572;10.704;2023-11-21T12:40:30;92094.47;;;5.69;100.00
52735;BME280;38631;47.572;10.704;2023-11-21T12:42:57;92100.38;;;5.42;100.00
52735;BME280;38631;47.572;10.704;2023-11-21T12:45:27;92092.75;;;5.40;100.00
52735;BME280;38631;47.572;10.704;2023-11-21T12:48:01;92089.84;;;5.42;100.00
52735;BME280;38631;47.572;10.704;2023-11-21T12:50:30;92102.94;;;5.47;100.00
52735;BME280;38631;47.572;10.704;2023-11-21T12:53:10;92113.75;;;5.46;100.00
52735;BME280;38631;47.572;10.704;2023-11-21T12:55:39;92108.09;;;5.57;100.00
52735;BME280;38631;47.572;10.704;2023-11-21T12:58:09;92098.72;;;5.46;100.00
52735;BME280;38631;47.572;10.704;2023-11-21T13:00:37;92103.44;;;5.68;100.00